createdAt,value
2023-02-19T00:02:33.603Z,97951.97
2023-02-19T00:06:37.734Z,97948.41
2023-02-19T00:10:41.380Z,97960.19
2023-02-19T00:14:45.040Z,97957.25
2023-02-19T00:18:50.312Z,97950.38
2023-02-19T00:22:54.001Z,97945.50
2023-02-19T00:26:57.556Z,97951.34
2023-02-19T00:31:06.599Z,97947.59
2023-02-19T00:35:11.398Z,97945.81
2023-02-19T00:39:18.983Z,97941.28
2023-02-19T00:43:22.788Z,97940.28
2023-02-19T00:47:26.524Z,97940.97
2023-02-19T00:51:33.464Z,97941.28
2023-02-19T00:55:37.052Z,97936.72
2023-02-19T00:59:40.629Z,97931.50
2023-02-19T01:03:44.382Z,97924.81
2023-02-19T01:07:49.255Z,97918.75
2023-02-19T01:11:52.945Z,97922.81
2023-02-19T01:15:56.781Z,97932.66
2023-02-19T01:20:00.210Z,97922.81
2023-02-19T01:24:05.275Z,97918.44
2023-02-19T01:28:09.170Z,97908.97
2023-02-19T01:32:12.755Z,97908.63
2023-02-19T01:36:17.952Z,97894.09
2023-02-19T01:40:23.610Z,97898.50
2023-02-19T01:45:15.779Z,97891.63
2023-02-19T01:49:23.559Z,97883.16
2023-02-19T01:53:31.783Z,97891.00
2023-02-19T01:57:42.552Z,97878.91
2023-02-19T02:01:46.369Z,97883.50
2023-02-19T02:05:58.713Z,97875.81
2023-02-19T02:10:21.589Z,97868.13
2023-02-19T02:14:29.690Z,97860.63
2023-02-19T02:18:45.405Z,97857.34
2023-02-19T02:22:56.973Z,97845.28
2023-02-19T02:27:15.794Z,97842.03
2023-02-19T02:31:26.873Z,97841.72
2023-02-19T02:35:36.051Z,97831.41
2023-02-19T02:39:40.558Z,97822.94
2023-02-19T02:43:43.594Z,97827.00
2023-02-19T02:47:52.233Z,97820.66
2023-02-19T02:51:58.077Z,97819.88
2023-02-19T02:56:03.032Z,97811.84
2023-02-19T03:00:07.311Z,97808.78
2023-02-19T03:04:16.401Z,97818.06
2023-02-19T03:08:25.052Z,97828.03
2023-02-19T03:12:49.619Z,97819.88
2023-02-19T03:17:17.317Z,97811.38
2023-02-19T03:21:24.082Z,97802.25
2023-02-19T03:25:47.711Z,97797.19
2023-02-19T03:29:55.097Z,97786.28
2023-02-19T03:34:01.568Z,97786.28
2023-02-19T03:38:13.319Z,97785.28
2023-02-19T03:42:22.580Z,97783.69
2023-02-19T03:46:32.894Z,97781.03
2023-02-19T03:50:44.769Z,97773.72
2023-02-19T03:54:56.967Z,97769.94
2023-02-19T03:59:07.168Z,97781.53
2023-02-19T04:03:18.243Z,97780.88
2023-02-19T04:07:22.649Z,97784.13
2023-02-19T04:11:29.180Z,97785.94
2023-02-19T04:15:35.403Z,97778.44
2023-02-19T04:19:42.324Z,97777.44
2023-02-19T04:23:47.766Z,97778.59
2023-02-19T04:27:53.925Z,97772.53
2023-02-19T04:31:57.144Z,97764.41
2023-02-19T04:36:00.739Z,97754.28
2023-02-19T04:40:04.565Z,97759.97
2023-02-19T04:44:09.134Z,97754.94
2023-02-19T04:48:12.801Z,97757.22
2023-02-19T04:52:15.932Z,97756.91
2023-02-19T04:56:20.037Z,97755.44
2023-02-19T05:00:25.022Z,97755.28
2023-02-19T05:04:28.669Z,97738.78
2023-02-19T05:08:32.713Z,97726.56
2023-02-19T05:12:36.109Z,97737.00
2023-02-19T05:16:41.013Z,97727.88
2023-02-19T05:20:44.321Z,97729.16
2023-02-19T05:24:47.860Z,97729.47
2023-02-19T05:28:52.814Z,97727.22
2023-02-19T05:32:57.952Z,97735.84
2023-02-19T05:37:01.038Z,97733.41
2023-02-19T05:41:13.153Z,97733.41
2023-02-19T05:45:16.621Z,97732.59
2023-02-19T05:49:21.616Z,97732.75
2023-02-19T05:53:25.463Z,97749.06
2023-02-19T05:57:28.873Z,97738.94
2023-02-19T06:01:33.507Z,97762.41
2023-02-19T06:05:38.640Z,97772.84
2023-02-19T06:09:42.153Z,97754.59
2023-02-19T06:13:45.857Z,97763.91
2023-02-19T06:17:49.296Z,97763.72
2023-02-19T06:21:53.799Z,97766.31
2023-02-19T06:25:57.214Z,97765.50
2023-02-19T06:30:00.563Z,97759.13
2023-02-19T06:34:06.495Z,97772.16
2023-02-19T06:38:11.330Z,97785.84
2023-02-19T06:42:14.716Z,97789.13
2023-02-19T06:46:18.267Z,97797.25
2023-02-19T06:50:21.309Z,97792.38
2023-02-19T06:54:27.315Z,97808.34
2023-02-19T06:58:31.036Z,97797.56
2023-02-19T07:02:34.726Z,97813.88
2023-02-19T07:06:39.213Z,97816.19
2023-02-19T07:10:44.057Z,97822.19
2023-02-19T07:14:48.153Z,97822.84
2023-02-19T07:18:51.806Z,97821.25
2023-02-19T07:22:54.988Z,97821.72
2023-02-19T07:26:59.899Z,97835.94
2023-02-19T07:31:03.963Z,97827.97
2023-02-19T07:35:08.962Z,97821.28
2023-02-19T07:39:14.392Z,97838.03
2023-02-19T07:43:19.110Z,97822.06
2023-02-19T07:47:22.866Z,97831.25
2023-02-19T07:51:26.250Z,97832.72
2023-02-19T07:55:30.108Z,97830.59
2023-02-19T07:59:36.218Z,97836.81
2023-02-19T08:03:40.747Z,97831.94
2023-02-19T08:07:43.881Z,97838.16
2023-02-19T08:12:04.546Z,97845.19
2023-02-19T08:16:26.608Z,97862.63
2023-02-19T08:20:38.201Z,97849.72
2023-02-19T08:24:43.068Z,97846.94
2023-02-19T08:28:46.782Z,97848.28
2023-02-19T08:32:51.807Z,97860.00
2023-02-19T08:36:55.105Z,97849.25
2023-02-19T08:40:58.651Z,97858.06
2023-02-19T08:45:01.697Z,97867.53
2023-02-19T08:49:14.527Z,97863.25
2023-02-19T08:53:17.779Z,97859.63
2023-02-19T08:57:20.781Z,97871.31
2023-02-19T09:01:24.681Z,97856.59
2023-02-19T09:05:29.720Z,97861.63
2023-02-19T09:09:33.435Z,97874.66
2023-02-19T09:13:36.552Z,97891.66
2023-02-19T09:17:39.947Z,97909.47
2023-02-19T09:21:45.723Z,97910.69
2023-02-19T09:25:48.796Z,97933.34
2023-02-19T09:29:52.695Z,97924.25
2023-02-19T09:33:55.754Z,97925.91
2023-02-19T09:38:03.776Z,97924.00
2023-02-19T09:42:16.968Z,97914.53
2023-02-19T09:46:28.734Z,97927.91
2023-02-19T09:50:38.529Z,97934.44
2023-02-19T09:54:44.147Z,97937.69
2023-02-19T09:58:50.779Z,97948.81
2023-02-19T10:02:58.745Z,97945.88
2023-02-19T10:07:03.861Z,97941.31
2023-02-19T10:11:14.074Z,97929.56
2023-02-19T10:15:21.115Z,97945.06
2023-02-19T10:19:24.726Z,97930.03
2023-02-19T10:23:28.179Z,97946.19
2023-02-19T10:27:33.284Z,97946.44
2023-02-19T10:31:36.852Z,97948.03
2023-02-19T10:35:54.301Z,97955.13
2023-02-19T10:39:57.676Z,97966.06
2023-02-19T10:44:09.785Z,97962.59
2023-02-19T10:48:26.084Z,97967.94
2023-02-19T10:52:31.992Z,97952.38
2023-02-19T10:56:35.782Z,97951.31
2023-02-19T11:00:40.266Z,97951.31
2023-02-19T11:04:44.328Z,97940.22
2023-02-19T11:08:54.305Z,97951.97
2023-02-19T11:13:00.790Z,97953.91
2023-02-19T11:17:06.831Z,97954.00
2023-02-19T11:21:29.287Z,97956.81
2023-02-19T11:25:48.334Z,97949.53
2023-02-19T11:29:52.338Z,97949.19
2023-02-19T11:34:01.129Z,97940.59
2023-02-19T11:38:04.624Z,97931.44
2023-02-19T11:42:25.912Z,97928.56
2023-02-19T11:46:37.253Z,97931.69
2023-02-19T11:50:54.816Z,97926.28
2023-02-19T11:55:10.532Z,97934.84
2023-02-19T11:59:22.364Z,97918.88
2023-02-19T12:03:37.924Z,97934.88
2023-02-19T12:08:13.320Z,97930.94
2023-02-19T12:12:28.700Z,97918.09
2023-02-19T12:16:35.880Z,97930.97
2023-02-19T12:20:49.244Z,97925.97
2023-02-19T12:25:24.332Z,97926.81
2023-02-19T12:29:41.464Z,97978.75
2023-02-19T12:34:13.147Z,97955.88
2023-02-19T12:38:25.949Z,97947.34
2023-02-19T12:42:46.963Z,97954.03
2023-02-19T12:46:54.535Z,97954.28
2023-02-19T12:51:04.859Z,97973.25
2023-02-19T12:55:21.365Z,97969.03
2023-02-19T12:59:35.017Z,97961.84
2023-02-19T13:03:43.553Z,97971.31
2023-02-19T13:08:01.241Z,97971.97
2023-02-19T13:12:08.791Z,97982.44
2023-02-19T13:16:19.019Z,97976.19
2023-02-19T13:20:29.728Z,97986.31
2023-02-19T13:24:37.568Z,97991.16
2023-02-19T13:28:57.804Z,98000.31
2023-02-19T13:33:14.744Z,98000.47
2023-02-19T13:37:19.402Z,97991.13
2023-02-19T13:41:29.670Z,98009.16
2023-02-19T13:45:36.829Z,98004.09
2023-02-19T13:49:45.587Z,98010.97
2023-02-19T13:54:00.032Z,98003.97
2023-02-19T13:58:36.950Z,98000.22
2023-02-19T14:02:40.308Z,97995.16
2023-02-19T14:07:17.837Z,97999.88
2023-02-19T14:12:00.620Z,97998.09
2023-02-19T14:16:04.515Z,97990.59
2023-02-19T14:21:07.853Z,97999.88
2023-02-19T14:25:26.043Z,97999.38
2023-02-19T14:29:30.611Z,98005.75
2023-02-19T14:33:37.542Z,98001.84
2023-02-19T14:37:42.307Z,97989.88
2023-02-19T14:41:48.678Z,97988.56
2023-02-19T14:45:56.053Z,97989.84
2023-02-19T14:55:29.156Z,98017.28
2023-02-19T14:59:32.305Z,98022.53
2023-02-19T15:03:38.311Z,98021.91
2023-02-19T15:07:44.258Z,98026.00
2023-02-19T15:11:49.591Z,98028.63
2023-02-19T15:15:53.557Z,98033.22
2023-02-19T15:19:59.080Z,98031.44
2023-02-19T15:24:04.707Z,98042.59
2023-02-19T15:28:23.007Z,98037.19
2023-02-19T15:32:28.202Z,98043.72
2023-02-19T15:36:35.746Z,98050.06
2023-02-19T15:40:39.855Z,98056.31
2023-02-19T15:44:50.019Z,98066.75
2023-02-19T15:49:01.666Z,98062.66
2023-02-19T15:53:09.749Z,98063.97
2023-02-19T15:57:18.696Z,98069.69
2023-02-19T16:01:26.805Z,98083.22
2023-02-19T16:05:30.860Z,98099.59
2023-02-19T16:09:37.523Z,98102.16
2023-02-19T16:13:40.957Z,98108.03
2023-02-19T16:17:47.077Z,98134.38
2023-02-19T16:21:50.994Z,98124.63
2023-02-19T16:26:00.461Z,98130.72
2023-02-19T16:30:08.692Z,98139.09
2023-02-19T16:34:20.299Z,98138.91
2023-02-19T16:38:23.864Z,98151.75
2023-02-19T16:42:27.596Z,98146.97
2023-02-19T16:46:31.414Z,98158.38
2023-02-19T16:50:36.533Z,98163.31
2023-02-19T16:54:39.900Z,98171.94
2023-02-19T16:58:43.506Z,98175.22
2023-02-19T17:02:48.590Z,98174.22
2023-02-19T17:06:53.406Z,98182.22
2023-02-19T17:10:56.462Z,98188.63
2023-02-19T17:15:00.017Z,98201.69
2023-02-19T17:19:05.670Z,98214.72
2023-02-19T17:23:11.025Z,98211.00
2023-02-19T17:27:14.993Z,98219.63
2023-02-19T17:31:18.842Z,98227.13
2023-02-19T17:35:22.676Z,98234.03
2023-02-19T17:39:27.895Z,98246.78
2023-02-19T17:43:31.687Z,98247.41
2023-02-19T17:47:34.710Z,98244.81
2023-02-19T17:51:38.398Z,98247.56
2023-02-19T17:55:42.882Z,98262.44
2023-02-19T17:59:46.736Z,98264.88
2023-02-19T18:03:50.632Z,98273.50
2023-02-19T18:07:53.882Z,98285.22
2023-02-19T18:11:58.814Z,98293.19
2023-02-19T18:16:01.957Z,98291.88
2023-02-19T18:20:08.559Z,98308.09
2023-02-19T18:24:12.197Z,98319.97
2023-02-19T18:28:17.165Z,98331.66
2023-02-19T18:32:21.320Z,98329.63
2023-02-19T18:36:24.511Z,98323.66
2023-02-19T18:40:29.654Z,98331.94
2023-02-19T18:44:34.069Z,98329.47
2023-02-19T18:48:38.038Z,98331.00
2023-02-19T18:52:41.077Z,98346.81
2023-02-19T18:56:45.794Z,98341.03
2023-02-19T19:00:50.757Z,98346.94
2023-02-19T19:04:56.503Z,98352.84
2023-02-19T19:09:00.684Z,98362.16
2023-02-19T19:13:03.743Z,98371.63
2023-02-19T19:17:08.798Z,98375.06
2023-02-19T19:21:12.751Z,98378.31
2023-02-19T19:25:16.375Z,98381.91
2023-02-19T19:29:23.682Z,98387.41
2023-02-19T19:33:28.546Z,98397.03
2023-02-19T19:37:32.619Z,98388.50
2023-02-19T19:41:35.965Z,98400.88
2023-02-19T19:45:42.445Z,98405.84
2023-02-19T19:49:48.475Z,98418.38
2023-02-19T19:53:51.975Z,98420.19
2023-02-19T19:57:55.700Z,98425.72
2023-02-19T20:01:59.660Z,98428.72
2023-02-19T20:06:04.528Z,98435.31
2023-02-19T20:10:14.088Z,98433.66
2023-02-19T20:14:18.785Z,98441.91
2023-02-19T20:18:22.016Z,98444.81
2023-02-19T20:22:26.882Z,98438.19
2023-02-19T20:26:31.373Z,98428.34
2023-02-19T20:30:35.235Z,98445.47
2023-02-19T20:34:38.884Z,98440.13
2023-02-19T20:38:44.244Z,98444.94
2023-02-19T20:42:48.386Z,98447.09
2023-02-19T20:46:54.670Z,98455.31
2023-02-19T20:50:59.905Z,98453.13
2023-02-19T20:55:05.102Z,98461.88
2023-02-19T20:59:08.729Z,98465.72
2023-02-19T21:03:12.291Z,98471.91
2023-02-19T21:07:16.390Z,98478.03
2023-02-19T21:11:21.222Z,98469.31
2023-02-19T21:15:25.222Z,98474.38
2023-02-19T21:19:28.648Z,98479.44
2023-02-19T21:23:32.469Z,98475.88
2023-02-19T21:27:37.568Z,98476.41
2023-02-19T21:31:42.337Z,98472.47
2023-02-19T21:35:45.401Z,98474.50
2023-02-19T21:39:49.549Z,98478.63
2023-02-19T21:43:54.943Z,98466.16
2023-02-19T21:47:58.811Z,98478.19
2023-02-19T21:52:02.364Z,98475.59
2023-02-19T21:56:05.870Z,98489.03
2023-02-19T22:00:12.252Z,98481.50
2023-02-19T22:04:18.407Z,98480.41
2023-02-19T22:08:22.408Z,98474.25
2023-02-19T22:12:25.474Z,98484.38
2023-02-19T22:16:30.758Z,98487.69
2023-02-19T22:20:34.810Z,98493.69
2023-02-19T22:24:38.250Z,98497.03
2023-02-19T22:28:42.470Z,98505.09
2023-02-19T22:32:47.383Z,98506.31
2023-02-19T22:36:51.495Z,98510.00
2023-02-19T22:40:55.149Z,98528.78
2023-02-19T22:44:58.836Z,98517.94
2023-02-19T22:49:05.471Z,98507.97
2023-02-19T22:53:08.825Z,98514.50
2023-02-19T22:57:12.234Z,98509.59
2023-02-19T23:01:16.431Z,98507.81
2023-02-19T23:05:23.045Z,98510.28
2023-02-19T23:09:29.183Z,98510.94
2023-02-19T23:13:32.578Z,98506.44
2023-02-19T23:17:36.380Z,98512.63
2023-02-19T23:21:41.920Z,98520.28
2023-02-19T23:25:45.945Z,98524.41
2023-02-19T23:29:49.356Z,98524.13
2023-02-19T23:33:52.806Z,98529.19
2023-02-19T23:37:57.871Z,98521.38
2023-02-19T23:42:01.328Z,98519.59
2023-02-19T23:46:05.255Z,98520.28
2023-02-19T23:50:09.492Z,98530.69
2023-02-19T23:54:14.602Z,98527.13
2023-02-19T23:58:18.208Z,98521.91
